Αναφορές METAR

 

LGKV - Kavala/Chrisoupo, Greece
Απόσταση από το σταθμό: Α 54km
Ενημερώθηκε: 20/10/2018 13:50
Thunderstorm rain, Κυρίως Νεφελώδης
Thunderstorm rain, Κυρίως Νεφελώδης
 Ανεμος από ΒΒΑ
Ανεμος: ΒΒΑ 15 km/h
Θερμοκρασία: 17°C
Σημείο Δρόσου: 15°C
Υγρασία: 88%
Βαρόμετρο: 1018 hPa
Summary: Thunderstorm Rain
Νέφωση: Κυρίως Νεφελώδης
Ορατότητα: 3 km
Λεπτομέρειες νέφωσης: Διάσπαρτα Νέφη 305 m
Μερικώς Νεφελώδης 610 m
Κυρίως Νεφελώδης 762 m
2018/10/20 10:50 LGKV 201050Z 02008KT 3000 TSRA FEW010 SCT020CB BKN025 17/15 Q1018
LGTS - Thessaloniki/Mik, Greece
Απόσταση από το σταθμό: ΔΝΔ 96km
Ενημερώθηκε: 20/10/2018 13:50
Διάσπαρτα Νέφη
Διάσπαρτα Νέφη
 Ανεμος από ΒΒΔ
Ανεμος: ΒΒΔ 26 km/h
Θερμοκρασία: 22°C
Σημείο Δρόσου: 10°C
Υγρασία: 47%
Βαρόμετρο: 1018 hPa
Νέφωση: Διάσπαρτα Νέφη
Ορατότητα: 10 km
Λεπτομέρειες νέφωσης: Διάσπαρτα Νέφη 549 m
2018/10/20 10:50 LGTS 201050Z 33014KT 9999 FEW018 22/10 Q1018 NOSIG
 
LBPD - Plovdiv, Bulgaria
Απόσταση από το σταθμό: ΒΒΑ 151km
Ενημερώθηκε: 20/10/2018 13:30
Αίθριος
Αίθριος
 Ανεμος από μεταβλητός
Ανεμος: μεταβλητός 7 km/h
Θερμοκρασία: 20°C
Σημείο Δρόσου: 11°C
Υγρασία: 56%
Βαρόμετρο: 1019 hPa
Νέφωση: Αίθριος
Ορατότητα: 10 km
2018/10/20 10:30 LBPD 201030Z AUTO VRB04KT 9999 NCD 20/11 Q1019 NOSIG
LGLM - Limnos Island Ar, Greece
Απόσταση από το σταθμό: ΝΑ 154km
Ενημερώθηκε: 20/10/2018 13:50
Αίθριος
Αίθριος
 Ανεμος από ΒΒΑ
Ανεμος: ΒΒΑ 13 km/h
Θερμοκρασία: 22°C
Σημείο Δρόσου: 14°C
Υγρασία: 61%
Βαρόμετρο: 1017 hPa
Summary: Αίθριος
Ορατότητα: greater than 10 km
2018/10/20 10:50 LGLM 201050Z 03007KT CAVOK 22/14 Q1017
 
LGAL - Alexandroupolis, Greece
Απόσταση από το σταθμό: Α 166km
Ενημερώθηκε: 20/10/2018 13:50
Μερικώς Νεφελώδης
Μερικώς Νεφελώδης
 Ανεμος από Β
Ανεμος: Β 20 km/h
Θερμοκρασία: 21°C
Σημείο Δρόσου: 16°C
Υγρασία: 73%
Βαρόμετρο: 1017 hPa
Νέφωση: Μερικώς Νεφελώδης
Ορατότητα: 10 km
Λεπτομέρειες νέφωσης: Διάσπαρτα Νέφη 427 m
Μερικώς Νεφελώδης 762 m
2018/10/20 10:50 LGAL 201050Z 01011KT 9999 FEW014 SCT025TCU 21/16 Q1017
LGKZ - Kozani (civ/Army, Greece
Απόσταση από το σταθμό: ΔΝΔ 194km
Ενημερώθηκε: 20/10/2018 13:50
Διάσπαρτα Νέφη
Διάσπαρτα Νέφη
 Ανεμος από ΒΒΑ
Ανεμος: ΒΒΑ 11 km/h
Θερμοκρασία: 21°C
Σημείο Δρόσου: 7°C
Υγρασία: 40%
Βαρόμετρο: 1020 hPa
Νέφωση: Διάσπαρτα Νέφη
Ορατότητα: 10 km
Λεπτομέρειες νέφωσης: Διάσπαρτα Νέφη 762 m
2018/10/20 10:50 LGKZ 201050Z 02006KT 9999 FEW025 21/07 Q1020
 
LGSK - Skiathos Island, Greece
Απόσταση από το σταθμό: Ν 197km
Ενημερώθηκε: 20/10/2018 13:50
Διάσπαρτα Νέφη
Διάσπαρτα Νέφη
 Ανεμος από ΒΒΑ
Ανεμος: ΒΒΑ 11 km/h
Θερμοκρασία: 21°C
Σημείο Δρόσου: 18°C
Υγρασία: 83%
Βαρόμετρο: 1017 hPa
Νέφωση: Διάσπαρτα Νέφη
Ορατότητα: 8 km
Λεπτομέρειες νέφωσης: Διάσπαρτα Νέφη 457 m
2018/10/20 10:50 LGSK 201050Z 03006KT 8000 FEW015 21/18 Q1017
LBSF - Sofia (observato, Bulgaria
Απόσταση από το σταθμό: ΒΒΔ 198km
Ενημερώθηκε: 20/10/2018 13:30
Αίθριος
Αίθριος
 Ανεμος από Δ
Ανεμος: Δ 20 km/h
Θερμοκρασία: 17°C
Σημείο Δρόσου: 9°C
Υγρασία: 59%
Βαρόμετρο: 1021 hPa
Summary: Αίθριος
Ορατότητα: greater than 10 km
2018/10/20 10:30 LBSF 201030Z 27011KT CAVOK 17/09 Q1021 NOSIG
 
LGBL - Nea Anchialos, Greece
Απόσταση από το σταθμό: ΝΝΔ 214km
Ενημερώθηκε: 20/10/2018 13:50
Διάσπαρτα Νέφη
Διάσπαρτα Νέφη
 Ανεμος από Α
Ανεμος: Α 9 km/h
Θερμοκρασία: 22°C
Σημείο Δρόσου: 13°C
Υγρασία: 57%
Βαρόμετρο: 1017 hPa
Νέφωση: Διάσπαρτα Νέφη
Ορατότητα: 10 km
Λεπτομέρειες νέφωσης: Διάσπαρτα Νέφη 610 m
2018/10/20 10:50 LGBL 201050Z 09005KT 9999 FEW020 22/13 Q1017
LGSY - Skiros, Greece
Απόσταση από το σταθμό: ΝΝΑ 222km
Ενημερώθηκε: 20/10/2018 12:50
Διάσπαρτα Νέφη
Διάσπαρτα Νέφη
 Ανεμος από Β
Ανεμος: Β 11 km/h
Θερμοκρασία: 20°C
Σημείο Δρόσου: 17°C
Υγρασία: 83%
Βαρόμετρο: 1018 hPa
Νέφωση: Διάσπαρτα Νέφη
Ορατότητα: 10 km
Λεπτομέρειες νέφωσης: Διάσπαρτα Νέφη 549 m
2018/10/20 09:50 LGSY 200950Z 36006KT 9999 FEW018 20/17 Q1018 BLU
 
LTBH - Canakkale, Turkey
Απόσταση από το σταθμό: ΑΝΑ 224km
Ενημερώθηκε: 20/10/2018 12:50
Διάσπαρτα Νέφη
Διάσπαρτα Νέφη
 Ανεμος από ΒΒΑ
Ανεμος: ΒΒΑ 17 km/h
Θερμοκρασία: 22°C
Σημείο Δρόσου: 15°C
Υγρασία: 65%
Βαρόμετρο: 1017 hPa
Νέφωση: Διάσπαρτα Νέφη
Ορατότητα: 10 km
Λεπτομέρειες νέφωσης: Διάσπαρτα Νέφη 914 m
2018/10/20 09:50 LTBH 200950Z 02009KT 340V050 9999 FEW030 22/15 Q1017
LWSK - Skopje/Petrovac, Macedonia
Απόσταση από το σταθμό: ΔΒΔ 227km
Ενημερώθηκε: 20/10/2018 13:30
Κυρίως Νεφελώδης
Κυρίως Νεφελώδης
 Ανεμος από ΒΔ
Ανεμος: ΒΔ 4 km/h
Θερμοκρασία: 17°C
Σημείο Δρόσου: 13°C
Υγρασία: 77%
Βαρόμετρο: 1022 hPa
Νέφωση: Κυρίως Νεφελώδης
Ορατότητα: 10 km
Λεπτομέρειες νέφωσης: Κυρίως Νεφελώδης 1219 m
Κυρίως Νεφελώδης 3048 m
2018/10/20 10:30 LWSK 201030Z 31002KT 9999 BKN040 BKN100 17/13 Q1022 NOSIG
 
LWOH - Ohrid, Macedonia
Απόσταση από το σταθμό: Δ 272km
Ενημερώθηκε: 20/10/2018 13:30
Μερικώς Νεφελώδης
Μερικώς Νεφελώδης
 Ανεμος από ΝΝΑ
Ανεμος: ΝΝΑ 11 km/h
Θερμοκρασία: 17°C
Σημείο Δρόσου: 10°C
Υγρασία: 64%
Βαρόμετρο: 1020 hPa
Νέφωση: Μερικώς Νεφελώδης
Ορατότητα: 10 km
Λεπτομέρειες νέφωσης: Μερικώς Νεφελώδης 1219 m
2018/10/20 10:30 LWOH 201030Z 15006KT 9999 SCT040 17/10 Q1020
LBGO - Gorna Orechovist, Bulgaria
Απόσταση από το σταθμό: ΒΒΑ 287km
Ενημερώθηκε: 20/10/2018 13:30
Νεφοσκεπής
Νεφοσκεπής
 Ανεμος από ΔΒΔ
Ανεμος: ΔΒΔ 9 km/h
Θερμοκρασία: 15°C
Σημείο Δρόσου: 14°C
Υγρασία: 94%
Βαρόμετρο: 1020 hPa
Νέφωση: Νεφοσκεπής
Ορατότητα: 8 km
Λεπτομέρειες νέφωσης: Διάσπαρτα Νέφη 305 m
Νεφοσκεπής 2347 m
2018/10/20 10:30 LBGO 201030Z AUTO 30005KT 8000 FEW010/// OVC077/// 15/14 Q1020 NOSIG
 
LTFD - Balikesir Korfez, Turkey
Απόσταση από το σταθμό: ΑΝΑ 300km
Ενημερώθηκε: 20/10/2018 12:50
Διάσπαρτα Νέφη
Διάσπαρτα Νέφη
 Ανεμος από ΑΝΑ
Ανεμος: ΑΝΑ 19 km/h
Θερμοκρασία: 24°C
Σημείο Δρόσου: 13°C
Υγρασία: 50%
Βαρόμετρο: 1016 hPa
Νέφωση: Διάσπαρτα Νέφη
Ορατότητα: 10 km
Λεπτομέρειες νέφωσης: Διάσπαρτα Νέφη 1067 m
2018/10/20 09:50 LTFD 200950Z 12010KT 090V150 9999 FEW035 24/13 Q1016
LGIO - Ioannina, Greece
Απόσταση από το σταθμό: ΔΝΔ 300km
Ενημερώθηκε: 20/10/2018 13:50
Αίθριος
Αίθριος
 Ανεμος από μεταβλητός
Ανεμος: μεταβλητός 0 km/h
Θερμοκρασία: 23°C
Σημείο Δρόσου: 11°C
Υγρασία: 47%
Βαρόμετρο: 1017 hPa
Summary: Αίθριος
Ορατότητα: greater than 10 km
2018/10/20 10:50 LGIO 201050Z /////KT CAVOK 23/11 Q1017
 
LGMT - Mitilini, Greece
Απόσταση από το σταθμό: ΝΑ 305km
Ενημερώθηκε: 20/10/2018 13:50
Μερικώς Νεφελώδης
Μερικώς Νεφελώδης
 Ανεμος από Β
Ανεμος: Β 13 km/h
Θερμοκρασία: 20°C
Σημείο Δρόσου: 17°C
Υγρασία: 83%
Νέφωση: Μερικώς Νεφελώδης
Ορατότητα: 7 km
2018/10/20 10:50 LGMT 201050Z 35007KT 300V030 7000 NSC 20/17 Q
BKPR - Prishtina, Yugoslavia
Απόσταση από το σταθμό: ΒΔ 306km
Ενημερώθηκε: 20/10/2018 14:00
Μερικώς Νεφελώδης
Μερικώς Νεφελώδης
 Ανεμος από μεταβλητός
Ανεμος: μεταβλητός 6 km/h
Θερμοκρασία: 16°C
Σημείο Δρόσου: 7°C
Υγρασία: 55%
Βαρόμετρο: 1022 hPa
Νέφωση: Μερικώς Νεφελώδης
Ορατότητα: 10 km
Λεπτομέρειες νέφωσης: Μερικώς Νεφελώδης 914 m
2018/10/20 11:00 BKPR 201100Z VRB03KT 9999 SCT030 16/07 Q1022 NOSIG
 
LYNI - Nis, Yugoslavia
Απόσταση από το σταθμό: ΒΒΔ 317km
Ενημερώθηκε: 20/10/2018 13:30
Κυρίως Νεφελώδης
Κυρίως Νεφελώδης
 Ανεμος από ΒΔ
Ανεμος: ΒΔ 19 km/h
Θερμοκρασία: 15°C
Σημείο Δρόσου: 11°C
Υγρασία: 77%
Βαρόμετρο: 1023 hPa
Νέφωση: Κυρίως Νεφελώδης
Ορατότητα: 10 km
Λεπτομέρειες νέφωσης: Μερικώς Νεφελώδης 610 m
Κυρίως Νεφελώδης 1128 m
2018/10/20 10:30 LYNI 201030Z 32010KT 290V350 9999 SCT020 BKN037 15/11 Q1023 NOSIG
LGEL - Elefsis (hel-Afb, Greece
Απόσταση από το σταθμό: Ν 319km
Ενημερώθηκε: 20/10/2018 13:50
Διάσπαρτα Νέφη
Διάσπαρτα Νέφη
 Ανεμος από ΝΝΔ
Ανεμος: ΝΝΔ 11 km/h
Θερμοκρασία: 24°C
Σημείο Δρόσου: 15°C
Υγρασία: 57%
Βαρόμετρο: 1017 hPa
Νέφωση: Διάσπαρτα Νέφη
Ορατότητα: 10 km
Λεπτομέρειες νέφωσης: Διάσπαρτα Νέφη 914 m
2018/10/20 10:50 LGEL 201050Z 21006KT 9999 FEW030 24/15 Q1017


 ♦     ♦     ♦     Ποτέ μη βασίζετε κρίσιμες αποφάσεις σ'αυτές ή οποιεσδήποτε πληροφορίες καιρού από το Internet     ♦     ♦     ♦